Accueil
METAR-TAF:

METAR-TAF

Aéroports :

USC Campus Downtown

Los Angeles, Californie, États-Unis

latitude: 34-01N, longitude: 118-17W, altitude: 56 m

Observation

Le bulletin a été fait il y a 11 minutes, à 02:05 UTC
Vent calme
Température 13°C
Humidité 88%
Pression 1013 hPa
Visibilité: 6.4 km
Nuages fragmentés à une hauteur de 500 ft
Ciel couvert à une hauteur de 1300 ft
pluie faible

METAR: KCQT 080205Z AUTO 00000KT 4SM -RA BKN005 OVC013 13/11 A2991 RMK AO2 CIG 003V009 PRESRR P0005 T01330106

Heure: 19:16 (02:16 UTC)


TAF: absent

Observations et prévisions météorologiques de plus de 4000 aéroports (messages METAR et TAF).

Les stations disponibles sont représentées par des disques jaunes et rouges sur la carte.

Passer la souris dessus pour voir le nom de la station.

Cliquer dessus pour voir les observations et prévisions météorologiques.

Pour changer de carte: cliquez sur les boutons verts avec une croix noire pour zoomer, sur le bouton vert avec un tiret pour effectuer un zoom arrière, ou sur les flèches vertes pour les cartes adjacentes.


METAR-TAF: